Time;durP1;ratioP1;P1;durP2;ratioP2;P2;SDS_P1;SDS_P2;PMS_P1;PMS_P2;Temp;Humidity;BMP_temperature;BMP_pressure;BME280_temperature;BME280_humidity;BME280_pressure;Samples;Min_cycle;Max_cycle;Signal;HPM_P1;HPM_P2
2022/08/03 00:00:58;;;;;;;10.27;7.72;;;21.70;99.90;;;;;;5093706;27;20219;-82
2022/08/03 00:03:51;;;;;;;15.25;7.95;;;21.70;99.90;;;;;;5095232;28;20329;-82
2022/08/03 00:06:39;;;;;;;11.85;8.32;;;21.60;99.90;;;;;;5109086;27;20235;-81
2022/08/03 00:09:29;;;;;;;12.43;8.45;;;21.80;99.90;;;;;;5097279;27;20227;-83
2022/08/03 00:12:23;;;;;;;13.52;7.70;;;21.50;99.90;;;;;;5099177;27;20304;-82
2022/08/03 00:15:11;;;;;;;15.50;8.15;;;21.70;99.90;;;;;;5095799;27;20215;-83
2022/08/03 00:18:05;;;;;;;11.88;7.93;;;21.50;99.90;;;;;;5093786;27;20722;-83
2022/08/03 00:20:54;;;;;;;9.52;8.20;;;21.50;99.90;;;;;;5096507;27;21756;-84
2022/08/03 00:23:43;;;;;;;12.48;8.02;;;21.80;99.90;;;;;;5094214;28;20527;-83
2022/08/03 00:26:40;;;;;;;14.15;8.10;;;21.50;99.90;;;;;;5096727;28;20218;-83
2022/08/03 00:29:28;;;;;;;10.15;7.93;;;21.50;99.90;;;;;;5091540;27;20215;-83
2022/08/03 00:32:21;;;;;;;11.35;7.85;;;21.60;99.90;;;;;;5092639;27;20239;-83
2022/08/03 00:35:13;;;;;;;11.88;8.05;;;21.50;99.90;;;;;;5097058;28;20688;-81
2022/08/03 00:38:21;;;;;;;10.23;7.85;;;21.40;99.90;;;;;;5109965;27;20206;-83
2022/08/03 00:41:10;;;;;;;11.15;8.07;;;21.50;99.90;;;;;;5097986;27;20219;-83
2022/08/03 00:44:03;;;;;;;11.63;7.60;;;21.60;99.90;;;;;;5094629;27;20219;-83
2022/08/03 00:46:51;;;;;;;10.65;7.85;;;21.40;99.90;;;;;;5098023;27;21473;-82
2022/08/03 00:49:41;;;;;;;11.63;8.95;;;21.60;99.90;;;;;;5098163;27;20234;-82
2022/08/03 00:52:31;;;;;;;13.85;8.15;;;21.50;99.90;;;;;;5096022;28;20219;-82
2022/08/03 00:55:20;;;;;;;11.63;8.00;;;21.30;99.90;;;;;;5095036;27;20212;-80
2022/08/03 00:58:10;;;;;;;10.18;8.25;;;21.40;99.90;;;;;;5099038;27;20238;-81
2022/08/03 01:00:58;;;;;;;11.40;8.10;;;21.20;99.90;;;;;;5097960;27;20227;-80
2022/08/03 01:03:51;;;;;;;11.27;7.95;;;21.20;99.90;;;;;;5098115;27;20219;-81
2022/08/03 01:06:49;;;;;;;12.50;8.25;;;21.20;99.90;;;;;;5109075;27;20241;-82
2022/08/03 01:09:46;;;;;;;12.55;8.07;;;21.40;99.90;;;;;;5108939;27;20227;-82
2022/08/03 01:12:38;;;;;;;11.55;8.45;;;21.20;99.90;;;;;;5092998;27;20264;-81
2022/08/03 01:15:36;;;;;;;10.35;8.20;;;21.20;99.90;;;;;;5095193;28;20770;-81
2022/08/03 01:18:32;;;;;;;19.23;8.93;;;21.20;99.90;;;;;;5095251;27;20229;-82
2022/08/03 01:21:26;;;;;;;11.10;8.10;;;21.10;99.90;;;;;;5110774;27;20591;-81
2022/08/03 01:24:31;;;;;;;10.40;8.43;;;21.10;99.90;;;;;;5095299;28;21201;-82
2022/08/03 01:27:32;;;;;;;11.85;8.13;;;21.20;99.90;;;;;;5091385;28;20678;-82
2022/08/03 01:30:28;;;;;;;11.40;8.20;;;21.00;99.90;;;;;;5097667;27;20219;-81
2022/08/03 01:33:22;;;;;;;10.05;7.95;;;21.10;99.90;;;;;;5098337;27;20225;-80
2022/08/03 01:36:16;;;;;;;13.88;7.72;;;21.00;99.90;;;;;;5097887;27;20226;-82
2022/08/03 01:39:08;;;;;;;12.20;8.23;;;21.10;99.90;;;;;;5092744;27;20215;-82
2022/08/03 01:41:59;;;;;;;12.60;8.00;;;21.00;99.90;;;;;;5097142;27;20342;-82
2022/08/03 01:44:50;;;;;;;10.50;7.82;;;21.10;99.90;;;;;;5097899;28;20587;-82
2022/08/03 01:47:42;;;;;;;11.27;8.20;;;21.10;99.90;;;;;;5099316;28;20225;-79
2022/08/03 01:50:33;;;;;;;9.00;8.07;;;20.80;99.90;;;;;;5094388;28;20222;-82
2022/08/03 01:53:23;;;;;;;10.90;8.25;;;20.80;99.90;;;;;;5097211;27;20308;-82
2022/08/03 01:56:13;;;;;;;11.43;7.22;;;20.80;99.90;;;;;;5101404;28;20587;-82
2022/08/03 01:59:03;;;;;;;10.48;8.07;;;20.80;99.90;;;;;;5093412;27;20211;-81
2022/08/03 02:01:53;;;;;;;14.63;7.93;;;20.70;99.90;;;;;;5097299;28;20215;-82
2022/08/03 02:05:07;;;;;;;16.77;8.55;;;20.80;99.90;;;;;;5098370;28;20218;-82
2022/08/03 02:08:00;;;;;;;9.40;7.93;;;20.70;99.90;;;;;;5094212;28;20901;-81
2022/08/03 02:10:51;;;;;;;11.77;8.40;;;20.70;99.90;;;;;;5098447;28;20218;-79
2022/08/03 02:13:41;;;;;;;12.05;8.80;;;20.60;99.90;;;;;;5110232;27;20245;-80
2022/08/03 02:16:32;;;;;;;11.23;8.88;;;20.80;99.90;;;;;;5097738;28;20727;-79
2022/08/03 02:19:22;;;;;;;12.52;7.95;;;20.70;99.90;;;;;;5096965;28;20223;-78
2022/08/03 02:22:13;;;;;;;10.82;8.82;;;;;;;;;;5098217;27;20223;-79
2022/08/03 02:25:02;;;;;;;10.77;8.20;;;20.70;99.90;;;;;;5109653;27;20227;-79
2022/08/03 02:27:54;;;;;;;11.90;8.00;;;20.60;99.90;;;;;;5096059;28;20226;-79
2022/08/03 02:30:46;;;;;;;11.02;8.85;;;20.80;99.90;;;;;;5095608;28;20299;-83
2022/08/03 02:33:45;;;;;;;12.65;8.30;;;20.80;99.90;;;;;;5093680;28;20269;-83
2022/08/03 02:36:39;;;;;;;12.30;8.30;;;20.60;99.90;;;;;;5097698;28;20211;-82
2022/08/03 02:39:32;;;;;;;11.73;8.80;;;20.70;99.90;;;;;;5099006;28;20229;-82
2022/08/03 02:42:24;;;;;;;11.02;8.73;;;20.70;99.90;;;;;;5098198;28;20309;-80
2022/08/03 02:45:14;;;;;;;11.98;8.55;;;20.70;99.90;;;;;;5097457;28;20275;-81
2022/08/03 02:48:05;;;;;;;13.95;8.70;;;20.50;99.90;;;;;;5099310;28;20222;-81
2022/08/03 02:50:56;;;;;;;13.95;8.95;;;20.50;99.90;;;;;;5096912;27;20311;-81
2022/08/03 02:53:48;;;;;;;11.50;9.75;;;20.40;99.90;;;;;;5096005;28;20216;-80
2022/08/03 02:56:39;;;;;;;15.45;9.98;;;20.60;99.90;;;;;;5097811;27;20735;-81
2022/08/03 02:59:30;;;;;;;13.38;10.68;;;20.70;99.90;;;;;;5095483;27;20560;-80
2022/08/03 03:02:19;;;;;;;13.23;10.23;;;20.40;99.90;;;;;;5114029;27;20293;-80
2022/08/03 03:05:10;;;;;;;10.80;9.68;;;20.50;99.90;;;;;;5103487;27;20476;-81
2022/08/03 03:08:20;;;;;;;12.73;10.32;;;20.60;99.90;;;;;;5095967;27;20268;-80
2022/08/03 03:11:18;;;;;;;13.77;10.68;;;20.60;99.90;;;;;;5099283;27;20223;-81
2022/08/03 03:14:12;;;;;;;16.25;11.00;;;20.40;99.90;;;;;;5098567;27;20218;-80
2022/08/03 03:17:02;;;;;;;13.05;10.30;;;20.40;99.90;;;;;;5099146;28;20234;-81
2022/08/03 03:19:51;;;;;;;13.50;10.13;;;20.50;99.90;;;;;;5096600;28;20922;-80
2022/08/03 03:22:41;;;;;;;15.25;10.55;;;20.50;99.90;;;;;;5094240;27;20635;-80
2022/08/03 03:25:34;;;;;;;15.43;10.80;;;20.70;99.90;;;;;;5112610;27;20223;-81
2022/08/03 03:28:23;;;;;;;13.63;10.88;;;20.50;99.90;;;;;;5097822;27;20215;-79
2022/08/03 03:31:13;;;;;;;16.25;10.55;;;20.60;99.90;;;;;;5099705;27;20219;-79
2022/08/03 03:34:02;;;;;;;15.68;10.07;;;20.80;99.90;;;;;;5100144;27;20226;-79
2022/08/03 03:36:51;;;;;;;17.05;11.18;;;20.50;99.90;;;;;;5094322;27;20230;-79
2022/08/03 03:39:40;;;;;;;12.77;11.13;;;20.70;99.90;;;;;;5093812;27;20712;-82
2022/08/03 03:42:29;;;;;;;13.85;11.27;;;20.70;99.90;;;;;;5110350;27;20270;-81
2022/08/03 03:45:18;;;;;;;13.80;11.07;;;20.80;99.90;;;;;;5101732;27;20624;-81
2022/08/03 03:48:09;;;;;;;15.00;11.15;;;20.70;99.90;;;;;;5091852;27;20219;-80
2022/08/03 03:50:59;;;;;;;15.77;11.20;;;20.80;99.90;;;;;;5097344;27;20268;-81
2022/08/03 03:53:57;;;;;;;13.23;10.55;;;20.80;99.90;;;;;;5117830;27;20214;-79
2022/08/03 03:56:45;;;;;;;13.90;11.57;;;20.80;99.90;;;;;;5102420;28;20253;-80
2022/08/03 03:59:37;;;;;;;15.20;11.10;;;20.90;99.90;;;;;;5100527;27;20222;-81
2022/08/03 04:02:26;;;;;;;16.30;11.30;;;21.00;99.90;;;;;;5097770;27;20368;-80
2022/08/03 04:11:36;;;;;;;17.23;11.43;;;21.10;99.90;;;;;;5092218;27;20219;-82
2022/08/03 04:14:28;;;;;;;13.85;11.38;;;21.00;99.90;;;;;;5098115;27;20219;-83
2022/08/03 04:17:19;;;;;;;16.35;12.27;;;21.10;99.90;;;;;;5099716;28;20216;-83
2022/08/03 04:20:09;;;;;;;14.85;12.65;;;20.80;99.90;;;;;;5098980;28;20722;-80
2022/08/03 04:23:01;;;;;;;17.58;13.93;;;20.80;99.90;;;;;;5097452;27;21064;-81
2022/08/03 04:25:53;;;;;;;16.95;13.95;;;20.80;99.90;;;;;;5074277;27;20230;-81
2022/08/03 04:28:45;;;;;;;19.17;13.98;;;20.80;99.90;;;;;;5097557;27;20230;-82
2022/08/03 04:31:35;;;;;;;17.63;14.45;;;21.10;99.90;;;;;;5113151;27;20238;-84
2022/08/03 04:34:24;;;;;;;19.30;14.55;;;20.80;99.90;;;;;;5100043;27;20214;-83
2022/08/03 04:37:18;;;;;;;17.30;14.50;;;20.90;99.90;;;;;;5099672;27;20219;-81
2022/08/03 04:40:13;;;;;;;18.15;14.57;;;20.90;99.90;;;;;;5096195;27;20641;-80
2022/08/03 04:43:03;;;;;;;19.92;14.35;;;21.20;99.90;;;;;;5111941;27;20368;-82
2022/08/03 04:45:53;;;;;;;19.08;14.90;;;21.10;99.90;;;;;;5095340;28;20222;-82
2022/08/03 04:48:42;;;;;;;20.08;15.23;;;21.40;99.90;;;;;;5110002;27;20707;-82
2022/08/03 04:51:33;;;;;;;16.85;15.18;;;21.20;99.90;;;;;;5098150;28;20231;-82
2022/08/03 04:54:22;;;;;;;17.00;15.20;;;21.20;99.90;;;;;;5104077;27;20218;-80
2022/08/03 04:57:12;;;;;;;25.50;17.63;;;21.30;99.90;;;;;;5099567;27;20223;-81
2022/08/03 05:00:12;;;;;;;18.70;15.07;;;21.20;99.90;;;;;;5097936;27;20698;-85
2022/08/03 05:03:00;;;;;;;19.73;16.02;;;21.20;99.90;;;;;;5100341;28;20229;-83
2022/08/03 05:05:49;;;;;;;22.05;16.63;;;21.10;99.90;;;;;;5098301;27;20231;-81
2022/08/03 05:08:39;;;;;;;18.75;16.83;;;21.20;99.90;;;;;;5102148;27;20218;-83
2022/08/03 05:11:38;;;;;;;22.92;17.35;;;21.00;99.90;;;;;;5108464;27;20218;-84
2022/08/03 05:14:28;;;;;;;21.58;16.65;;;21.00;99.90;;;;;;5099518;27;20233;-81
2022/08/03 05:17:18;;;;;;;21.73;17.00;;;21.20;99.90;;;;;;5099589;28;20289;-82
2022/08/03 05:20:08;;;;;;;19.20;17.17;;;21.50;99.90;;;;;;5098509;28;20222;-82
2022/08/03 05:22:57;;;;;;;20.63;18.13;;;21.30;99.90;;;;;;5094300;28;20226;-84
2022/08/03 05:25:45;;;;;;;20.40;18.15;;;21.30;99.90;;;;;;5093155;28;20220;-84
2022/08/03 05:28:37;;;;;;;19.60;17.70;;;21.40;99.90;;;;;;5096039;28;20271;-81
2022/08/03 05:31:36;;;;;;;19.58;17.58;;;21.40;99.90;;;;;;5115413;27;20290;-81
2022/08/03 05:34:25;;;;;;;23.30;17.98;;;21.50;99.90;;;;;;5098483;28;20326;-84
2022/08/03 05:37:14;;;;;;;31.30;18.30;;;21.60;99.90;;;;;;5099568;27;20245;-82
2022/08/03 05:40:02;;;;;;;24.77;18.52;;;21.80;99.90;;;;;;5099664;28;20227;-85
2022/08/03 05:42:51;;;;;;;22.38;18.00;;;21.70;99.90;;;;;;5094276;28;20219;-83
2022/08/03 05:45:40;;;;;;;22.23;18.02;;;21.90;99.90;;;;;;5101372;28;20227;-81
2022/08/03 05:48:30;;;;;;;22.70;18.27;;;22.00;99.90;;;;;;5110125;27;20281;-77
2022/08/03 05:51:19;;;;;;;24.63;19.00;;;22.30;99.90;;;;;;5099884;28;20207;-80
2022/08/03 05:54:08;;;;;;;24.48;19.25;;;21.90;99.90;;;;;;5099184;27;20725;-82
2022/08/03 05:56:57;;;;;;;22.40;18.83;;;22.00;99.90;;;;;;5099150;28;20227;-87
2022/08/03 05:59:45;;;;;;;24.02;19.20;;;22.20;99.90;;;;;;5105269;28;20230;-89
2022/08/03 06:02:46;;;;;;;22.38;18.88;;;22.20;99.90;;;;;;5102129;28;20281;-80
2022/08/03 06:05:36;;;;;;;28.05;18.65;;;22.00;99.90;;;;;;5121008;27;20227;-79
2022/08/03 06:08:30;;;;;;;24.55;18.50;;;22.30;99.90;;;;;;5102914;28;20881;-80
2022/08/03 06:11:19;;;;;;;24.90;20.17;;;22.00;99.90;;;;;;5099558;28;20227;-84
2022/08/03 06:14:08;;;;;;;27.00;19.10;;;21.80;99.90;;;;;;5098163;28;20275;-81
2022/08/03 06:16:56;;;;;;;22.63;19.90;;;22.10;99.90;;;;;;5106187;28;20211;-83
2022/08/03 06:19:45;;;;;;;25.65;18.88;;;21.80;99.90;;;;;;5101323;28;20718;-85
2022/08/03 06:22:35;;;;;;;21.45;19.17;;;22.10;99.90;;;;;;5111804;27;20230;-82
2022/08/03 06:25:37;;;;;;;23.85;20.42;;;22.10;99.90;;;;;;5098489;28;20230;-84
2022/08/03 06:28:26;;;;;;;36.30;19.42;;;22.10;99.90;;;;;;5102045;27;20778;-84
2022/08/03 06:31:35;;;;;;;38.88;22.00;;;22.30;99.90;;;;;;5118600;27;20222;-83
2022/08/03 06:34:24;;;;;;;22.92;19.70;;;22.60;99.90;;;;;;5098667;27;20220;-87
2022/08/03 06:37:23;;;;;;;25.38;20.10;;;22.60;99.90;;;;;;5103501;27;20220;-87
2022/08/03 06:40:15;;;;;;;22.20;19.23;;;22.40;99.90;;;;;;5111794;27;20305;-89
2022/08/03 06:43:14;;;;;;;23.13;19.17;;;22.70;99.90;;;;;;5118438;27;20227;-90
2022/08/03 06:46:04;;;;;;;41.75;21.90;;;22.50;99.90;;;;;;5109937;28;20264;-89
2022/08/03 06:48:55;;;;;;;25.50;19.80;;;22.50;99.90;;;;;;5124566;27;20221;-84
2022/08/03 06:51:44;;;;;;;127.95;28.90;;;22.50;99.90;;;;;;5118764;27;20231;-85
2022/08/03 06:54:53;;;;;;;232.77;39.65;;;22.80;99.90;;;;;;5101244;28;20222;-84
2022/08/03 06:57:43;;;;;;;68.32;23.73;;;22.60;99.90;;;;;;5116690;27;20219;-85
2022/08/03 07:00:33;;;;;;;25.63;18.45;;;22.50;99.90;;;;;;5104509;28;20222;-86
2022/08/03 07:03:22;;;;;;;25.23;19.15;;;22.60;99.90;;;;;;5105688;27;20271;-84
2022/08/03 07:06:10;;;;;;;23.63;19.55;;;22.60;99.90;;;;;;5101874;28;20226;-86
2022/08/03 07:08:59;;;;;;;27.73;24.73;;;22.90;99.90;;;;;;5108966;27;20221;-93
2022/08/03 07:11:48;;;;;;;28.15;20.38;;;23.00;99.90;;;;;;5106595;27;20663;-87
2022/08/03 07:14:38;;;;;;;23.08;19.33;;;23.00;99.90;;;;;;5106662;27;20256;-87
2022/08/03 07:17:27;;;;;;;90.18;25.63;;;23.40;99.90;;;;;;5101156;27;20223;-87
2022/08/03 07:20:17;;;;;;;31.90;20.67;;;23.50;99.90;;;;;;5119735;27;20348;-86
2022/08/03 07:23:05;;;;;;;23.38;20.13;;;23.80;99.90;;;;;;5104861;27;20215;-85
2022/08/03 07:25:54;;;;;;;22.20;18.77;;;23.80;99.90;;;;;;5110961;27;20235;-94
2022/08/03 07:28:43;;;;;;;26.10;19.75;;;23.90;99.90;;;;;;5107765;27;20219;-86
2022/08/03 07:31:33;;;;;;;28.00;18.73;;;24.30;99.90;;;;;;5103773;27;20944;-91
2022/08/03 07:34:22;;;;;;;23.75;18.40;;;24.40;99.90;;;;;;5099356;28;20297;-84
2022/08/03 07:37:11;;;;;;;22.98;20.13;;;24.30;99.90;;;;;;5112688;27;20719;-85
2022/08/03 07:40:00;;;;;;;22.55;17.27;;;24.60;99.90;;;;;;5097397;28;20222;-83
2022/08/03 07:42:48;;;;;;;21.10;14.68;;;25.20;99.90;;;;;;5102189;28;20226;-84
2022/08/03 07:45:41;;;;;;;29.10;15.27;;;25.60;99.90;;;;;;5107369;27;20230;-83
2022/08/03 07:48:31;;;;;;;16.00;13.40;;;25.70;99.90;;;;;;5098634;27;20219;-83
2022/08/03 07:51:19;;;;;;;19.73;14.63;;;25.80;99.90;;;;;;5103288;28;20518;-85
2022/08/03 07:54:08;;;;;;;19.95;14.60;;;26.00;99.90;;;;;;5115003;27;20234;-81
2022/08/03 07:56:57;;;;;;;18.73;12.90;;;26.30;99.90;;;;;;5100179;27;20226;-83
2022/08/03 07:59:46;;;;;;;15.52;12.50;;;25.90;99.90;;;;;;5114595;27;20230;-82
2022/08/03 08:02:59;;;;;;;13.45;12.05;;;25.80;99.90;;;;;;5100473;28;20226;-84
2022/08/03 08:05:49;;;;;;;14.77;11.05;;;26.40;99.90;;;;;;5098593;27;20295;-81
2022/08/03 08:08:39;;;;;;;12.95;10.90;;;26.50;99.90;;;;;;5096057;28;20615;-81
2022/08/03 08:11:28;;;;;;;14.48;10.98;;;26.70;99.90;;;;;;5097820;28;20226;-81
2022/08/03 08:14:16;;;;;;;16.15;11.40;;;26.90;99.90;;;;;;5098697;28;21909;-81
2022/08/03 08:17:05;;;;;;;18.02;11.45;;;27.40;99.90;;;;;;5102331;27;20226;-82
2022/08/03 08:19:54;;;;;;;15.73;11.25;;;27.90;99.90;;;;;;5095553;28;20882;-87
2022/08/03 08:22:46;;;;;;;18.50;11.43;;;28.30;99.90;;;;;;5101759;27;20234;-84
2022/08/03 08:25:37;;;;;;;18.08;7.97;;;28.90;99.90;;;;;;5099963;27;20230;-83
2022/08/03 08:28:26;;;;;;;12.52;8.85;;;29.70;99.90;;;;;;5097709;27;20390;-85
2022/08/03 08:31:20;;;;;;;19.85;8.98;;;30.00;99.90;;;;;;5097189;27;20243;-85
2022/08/03 08:34:09;;;;;;;17.70;7.45;;;;;;;;;;5108809;28;20283;-90
2022/08/03 08:36:58;;;;;;;7.55;5.32;;;30.20;99.90;;;;;;5105152;28;20220;-93
2022/08/03 08:39:48;;;;;;;9.00;6.47;;;30.00;99.90;;;;;;5115519;28;20287;-96
2022/08/03 08:42:38;;;;;;;8.40;6.18;;;29.80;99.90;;;;;;5138364;27;20714;-95
2022/08/03 08:45:32;;;;;;;6.43;5.35;;;29.50;99.90;;;;;;5107064;28;20227;-94
2022/08/03 08:48:24;;;;;;;25.65;7.53;;;29.90;99.90;;;;;;5107400;28;20230;-92
2022/08/03 08:51:13;;;;;;;13.27;7.32;;;29.30;99.90;;;;;;5124358;28;20235;-95
2022/08/03 08:54:03;;;;;;;12.45;7.40;;;30.00;99.90;;;;;;5110537;27;20215;-90
2022/08/03 08:56:56;;;;;;;11.10;6.97;;;29.70;99.90;;;;;;5107286;28;20222;-94
2022/08/03 08:59:44;;;;;;;10.77;7.95;;;29.20;99.90;;;;;;5114154;27;20234;-92
2022/08/03 09:02:37;;;;;;;16.58;7.13;;;29.10;99.90;;;;;;5119435;27;20215;-93
2022/08/03 09:05:26;;;;;;;13.65;6.53;;;29.10;99.90;;;;;;5126355;27;20776;-96
2022/08/03 09:08:35;;;;;;;12.48;7.10;;;28.30;99.90;;;;;;5116145;28;20219;-96
2022/08/03 09:11:23;;;;;;;9.45;6.53;;;29.60;99.90;;;;;;5123948;27;20214;-95
2022/08/03 09:14:34;;;;;;;13.45;6.68;;;30.40;99.90;;;;;;5129363;27;20228;-95
2022/08/03 09:17:42;;;;;;;8.32;6.30;;;30.20;99.90;;;;;;5117833;27;20218;-89
2022/08/03 09:20:37;;;;;;;12.52;6.80;;;30.90;99.90;;;;;;5132884;27;20219;-93
2022/08/03 09:23:44;;;;;;;9.20;6.22;;;31.20;99.90;;;;;;5126759;27;20192;-92
2022/08/03 09:26:52;;;;;;;9.10;6.65;;;30.90;99.60;;;;;;5123963;28;20226;-95
2022/08/03 09:29:47;;;;;;;8.50;6.20;;;29.80;99.90;;;;;;5125024;27;20218;-94
2022/08/03 09:32:37;;;;;;;11.55;7.20;;;29.40;99.90;;;;;;5106358;27;20218;-95
2022/08/03 09:35:28;;;;;;;9.57;7.15;;;30.60;99.90;;;;;;5110962;28;20705;-93
2022/08/03 09:38:37;;;;;;;10.77;7.45;;;;;;;;;;5106579;28;20233;-95
2022/08/03 09:41:26;;;;;;;13.15;6.80;;;31.70;99.90;;;;;;5103517;28;20298;-81
2022/08/03 09:44:15;;;;;;;12.50;8.02;;;32.10;96.80;;;;;;5107241;27;20217;-93
2022/08/03 09:47:15;;;;;;;10.80;7.20;;;32.20;95.70;;;;;;5121915;27;20214;-93
2022/08/03 09:50:07;;;;;;;11.65;7.53;;;32.20;94.90;;;;;;5104680;28;20715;-90
2022/08/03 09:53:02;;;;;;;8.82;7.88;;;33.30;94.20;;;;;;5109857;28;20834;-91
2022/08/03 09:55:55;;;;;;;12.98;8.68;;;33.40;93.20;;;;;;5118241;28;20229;-91
2022/08/03 09:59:04;;;;;;;12.93;8.40;;;32.60;93.50;;;;;;5103486;28;20325;-91
2022/08/03 10:01:53;;;;;;;10.07;7.55;;;;;;;;;;5102970;28;20359;-90
2022/08/03 10:04:51;;;;;;;15.90;8.18;;;32.80;94.50;;;;;;5127457;27;20225;-91
2022/08/03 10:07:44;;;;;;;13.75;7.50;;;31.50;95.20;;;;;;5094836;28;20214;-91
2022/08/03 10:10:42;;;;;;;9.25;7.35;;;32.90;93.80;;;;;;5111292;28;20280;-90
2022/08/03 10:13:31;;;;;;;15.50;8.43;;;32.00;94.10;;;;;;5110890;28;20230;-92
2022/08/03 10:16:20;;;;;;;7.40;6.70;;;33.20;93.30;;;;;;5124236;27;20219;-92
2022/08/03 10:19:14;;;;;;;11.43;5.90;;;33.30;90.10;;;;;;5120496;27;20226;-90
2022/08/03 10:22:12;;;;;;;16.15;6.07;;;31.90;90.40;;;;;;5111099;27;20215;-92
2022/08/03 10:25:07;;;;;;;17.50;6.93;;;30.80;91.90;;;;;;5126163;28;20210;-92
2022/08/03 10:27:58;;;;;;;10.38;6.40;;;30.10;93.70;;;;;;5113540;28;20222;-90
2022/08/03 10:30:50;;;;;;;7.78;6.03;;;29.60;93.70;;;;;;5112900;28;20246;-91
2022/08/03 10:33:43;;;;;;;8.90;6.43;;;29.40;94.20;;;;;;5137150;27;21079;-91
2022/08/03 10:36:41;;;;;;;9.05;6.45;;;28.90;95.20;;;;;;5109678;28;20281;-92
2022/08/03 10:39:31;;;;;;;7.35;5.68;;;28.80;96.70;;;;;;5108242;28;20728;-89
2022/08/03 10:42:23;;;;;;;7.60;5.57;;;29.00;95.30;;;;;;5111454;28;20223;-94
2022/08/03 10:45:18;;;;;;;10.57;5.65;;;29.50;96.70;;;;;;5110128;28;20225;-92
2022/08/03 10:48:09;;;;;;;6.88;5.15;;;30.70;94.70;;;;;;5111343;27;20268;-90
2022/08/03 10:50:58;;;;;;;10.38;5.38;;;32.20;92.60;;;;;;5105003;27;20241;-91
2022/08/03 10:53:47;;;;;;;11.73;5.20;;;32.70;91.00;;;;;;5105932;27;20226;-92
2022/08/03 11:00:04;;;;;;;6.15;5.55;;;36.70;83.10;;;;;;5102743;27;20214;-92
2022/08/03 11:03:13;;;;;;;10.55;5.32;;;36.50;67.30;;;;;;5111262;27;20575;-88
2022/08/03 11:06:17;;;;;;;8.18;5.55;;;35.10;74.90;;;;;;5112922;27;20230;-94
2022/08/03 11:09:17;;;;;;;6.30;5.20;;;33.80;69.90;;;;;;5124176;27;20232;-96
2022/08/03 11:12:22;;;;;;;9.00;8.10;;;33.40;74.10;;;;;;5129619;27;20222;-95
2022/08/03 11:15:33;;;;;;;6.60;5.07;;;33.80;75.20;;;;;;5111162;28;20263;-94
2022/08/03 11:18:23;;;;;;;8.40;5.75;;;33.80;72.70;;;;;;5106303;28;20693;-94
2022/08/03 11:21:14;;;;;;;16.63;9.65;;;35.10;77.40;;;;;;5116612;27;20218;-91
2022/08/03 11:24:03;;;;;;;6.45;5.47;;;37.30;72.30;;;;;;5106775;28;20311;-92
2022/08/03 11:27:19;;;;;;;10.30;6.10;;;38.10;64.30;;;;;;5122197;27;20222;-91
2022/08/03 11:30:10;;;;;;;4.97;4.53;;;38.80;82.00;;;;;;5130830;27;20218;-92
2022/08/03 11:33:01;;;;;;;10.35;5.65;;;39.10;56.10;;;;;;5119320;28;20309;-87
2022/08/03 11:35:59;;;;;;;8.10;5.00;;;39.80;58.20;;;;;;5109522;27;20214;-89
2022/08/03 11:39:14;;;;;;;5.32;4.40;;;40.50;55.70;;;;;;5102830;27;20244;-91
2022/08/03 11:42:37;;;;;;;8.65;4.18;;;41.20;52.40;;;;;;5102295;28;20227;-92
2022/08/03 11:45:27;;;;;;;8.82;4.50;;;41.70;51.70;;;;;;5132290;27;20221;-91
2022/08/03 11:48:17;;;;;;;4.30;3.90;;;42.50;52.50;;;;;;5115606;27;20705;-93
2022/08/03 11:51:07;;;;;;;5.75;4.35;;;43.10;48.60;;;;;;5112394;27;20303;-91
2022/08/03 11:53:57;;;;;;;4.10;3.70;;;43.90;47.90;;;;;;5110037;28;20218;-94
2022/08/03 11:56:46;;;;;;;4.80;3.90;;;43.80;46.70;;;;;;5115032;28;20229;-94
2022/08/03 11:59:37;;;;;;;5.45;3.67;;;44.10;47.00;;;;;;5105100;28;20890;-93
2022/08/03 12:02:27;;;;;;;4.63;3.90;;;44.40;46.40;;;;;;5114637;27;20222;-94
2022/08/03 12:05:17;;;;;;;6.03;3.90;;;45.20;45.60;;;;;;5112279;28;20224;-90
2022/08/03 12:08:08;;;;;;;5.38;4.07;;;45.10;45.60;;;;;;5105461;28;20287;-94
2022/08/03 12:11:00;;;;;;;4.57;4.00;;;45.60;44.50;;;;;;5101578;27;20226;-93
2022/08/03 12:13:50;;;;;;;5.07;4.05;;;45.60;44.90;;;;;;5117171;27;20214;-94
2022/08/03 12:16:59;;;;;;;4.10;3.70;;;45.40;45.00;;;;;;5102430;28;20230;-90
2022/08/03 12:19:49;;;;;;;4.93;4.03;;;45.90;43.90;;;;;;5107809;27;20352;-88
2022/08/03 12:22:40;;;;;;;4.63;4.00;;;46.30;42.60;;;;;;5129832;27;20218;-90
2022/08/03 12:25:28;;;;;;;10.25;4.38;;;46.00;43.80;;;;;;5100739;27;20222;-92
2022/08/03 12:28:27;;;;;;;8.70;3.80;;;45.70;43.30;;;;;;5128750;27;20262;-91
2022/08/03 12:31:24;;;;;;;6.95;4.68;;;46.40;42.30;;;;;;5104994;28;20269;-91
2022/08/03 12:34:13;;;;;;;5.55;3.70;;;46.60;42.90;;;;;;5122394;27;20230;-88
2022/08/03 12:37:05;;;;;;;13.05;4.03;;;46.10;41.50;;;;;;5122602;27;20222;-91
2022/08/03 12:40:12;;;;;;;10.30;4.25;;;45.80;41.90;;;;;;5101117;28;20231;-91
2022/08/03 12:43:14;;;;;;;6.47;4.50;;;41.40;44.70;;;;;;5110682;27;20214;-90
2022/08/03 12:46:14;;;;;;;8.90;4.10;;;38.30;49.90;;;;;;5123318;27;20250;-91
2022/08/03 12:49:06;;;;;;;5.25;4.43;;;36.70;51.90;;;;;;5112120;27;20603;-90
2022/08/03 12:51:59;;;;;;;4.82;4.18;;;35.50;53.70;;;;;;5118214;27;20237;-90
2022/08/03 12:54:56;;;;;;;5.68;3.97;;;34.70;55.30;;;;;;5100663;28;20222;-95
2022/08/03 12:57:45;;;;;;;5.50;4.43;;;34.00;57.40;;;;;;5116464;27;20370;-86
2022/08/03 13:00:34;;;;;;;9.73;5.00;;;33.50;58.30;;;;;;5100375;28;20622;-87
2022/08/03 13:03:24;;;;;;;5.85;4.50;;;33.00;61.10;;;;;;5102356;28;20340;-87
2022/08/03 13:06:30;;;;;;;6.28;4.68;;;32.80;58.60;;;;;;5111444;27;20434;-86
2022/08/03 13:09:19;;;;;;;8.32;5.80;;;32.70;60.10;;;;;;5101043;28;20225;-88
2022/08/03 13:12:12;;;;;;;6.22;5.28;;;32.50;62.70;;;;;;5092148;28;20688;-80
2022/08/03 13:15:01;;;;;;;7.20;4.80;;;32.10;60.90;;;;;;5096246;28;20306;-84
2022/08/03 13:17:51;;;;;;;6.78;5.07;;;32.40;61.20;;;;;;5097292;28;20254;-86
2022/08/03 13:20:40;;;;;;;5.95;5.30;;;32.00;61.60;;;;;;5099428;28;20684;-86
2022/08/03 13:23:28;;;;;;;10.90;5.20;;;32.00;62.00;;;;;;5102802;28;20692;-87
2022/08/03 13:26:17;;;;;;;5.85;5.22;;;31.90;62.00;;;;;;5100801;28;20286;-86
2022/08/03 13:29:07;;;;;;;6.75;5.50;;;31.70;62.40;;;;;;5126270;27;20219;-86
2022/08/03 13:31:56;;;;;;;7.30;5.35;;;31.80;63.60;;;;;;5104458;27;20252;-86
2022/08/03 13:34:49;;;;;;;8.30;5.30;;;31.70;64.80;;;;;;5098986;27;20230;-91
2022/08/03 13:37:51;;;;;;;5.43;4.93;;;31.50;65.80;;;;;;5116442;27;20610;-88
2022/08/03 13:40:46;;;;;;;7.65;5.30;;;31.20;63.20;;;;;;5133253;27;21171;-91
2022/08/03 13:43:42;;;;;;;6.55;4.95;;;31.40;63.00;;;;;;5119013;27;20237;-89
2022/08/03 13:46:36;;;;;;;6.43;5.78;;;31.20;64.00;;;;;;5132778;27;20218;-94
2022/08/03 13:49:25;;;;;;;16.10;7.45;;;31.10;64.20;;;;;;5125213;27;20221;-92
2022/08/03 13:52:14;;;;;;;8.52;6.90;;;31.30;64.70;;;;;;5125690;27;20241;-93
2022/08/03 13:55:05;;;;;;;6.82;6.20;;;31.30;66.90;;;;;;5117501;28;20213;-95
2022/08/03 13:57:55;;;;;;;7.88;6.95;;;31.20;65.80;;;;;;5127097;27;20237;-93
2022/08/03 14:01:06;;;;;;;9.80;7.68;;;30.90;67.10;;;;;;5114619;27;20226;-93
2022/08/03 14:04:03;;;;;;;9.90;6.75;;;31.20;68.50;;;;;;5129898;27;21007;-90
2022/08/03 14:07:05;;;;;;;7.45;6.60;;;30.90;68.50;;;;;;5105101;28;20213;-91
2022/08/03 14:13:24;;;;;;;10.32;7.97;;;30.60;72.10;;;;;;4975927;28;20206;-79
2022/08/03 14:16:12;;;;;;;10.43;7.22;;;30.50;74.00;;;;;;4981165;28;20566;-81
2022/08/03 14:19:07;;;;;;;18.10;6.53;;;30.30;71.50;;;;;;4975777;28;20230;-82
2022/08/03 14:21:56;;;;;;;18.98;6.72;;;30.30;71.50;;;;;;4976899;28;20226;-81
2022/08/03 14:24:54;;;;;;;12.70;6.60;;;30.20;72.50;;;;;;4979687;28;20238;-81
2022/08/03 14:27:43;;;;;;;7.65;6.45;;;30.30;71.40;;;;;;4979769;28;20233;-81
2022/08/03 14:30:31;;;;;;;8.30;6.38;;;30.40;71.90;;;;;;4976427;28;20235;-81
2022/08/03 14:33:20;;;;;;;7.80;7.00;;;30.30;74.00;;;;;;4981941;28;20226;-80
2022/08/03 14:36:10;;;;;;;10.05;7.07;;;30.10;74.90;;;;;;4976783;28;20218;-79
2022/08/03 14:38:58;;;;;;;7.78;6.97;;;30.20;74.40;;;;;;4979667;28;20230;-81
2022/08/03 14:41:48;;;;;;;10.32;6.90;;;30.20;73.40;;;;;;4992073;28;20230;-81
2022/08/03 14:44:38;;;;;;;8.18;7.05;;;30.20;73.40;;;;;;4977827;28;20226;-80
2022/08/03 14:47:26;;;;;;;7.78;7.03;;;30.10;74.90;;;;;;4990689;28;20816;-80
2022/08/03 14:50:15;;;;;;;9.55;7.13;;;30.10;78.00;;;;;;4976146;28;20233;-80
2022/08/03 14:53:24;;;;;;;21.75;8.18;;;29.90;74.90;;;;;;4980270;28;20226;-79
2022/08/03 14:56:13;;;;;;;7.95;6.93;;;29.80;74.60;;;;;;4980326;28;20218;-81
2022/08/03 14:59:02;;;;;;;8.70;7.13;;;;;;;;;;4998010;28;20620;-80
2022/08/03 15:01:51;;;;;;;8.20;6.72;;;;;;;;;;4976207;28;20230;-77